Flight Track Log - Related Links

Times and Time Zones

All times are in EDT time to prevent confusion due to time zone crossing. See the AWE46 flight status page for this flight to view local times or setup timezone preferences in your user account.

Time Position Orientation Groundspeed Altitude Reporting Facility
EDT Latitude Longitude Course Direction KTS MPH feet Rate Location/Type
Fri 03:39:15 PM 33.8156 -118.1179 288° West  Level FlightAware Approximate
Fri 03:39:51 PM 33.8333 -118.1833 248° West 164 189 1,700  Level Southern California TRACON
Fri 03:40:51 PM 33.8167 -118.2333 212° Southwest 218 251 4,000 2,500 Climbing Southern California TRACON
Fri 03:41:51 PM 33.7500 -118.2833 192° South 284 327 6,700 1,900 Climbing Southern California TRACON
Fri 03:42:51 PM 33.6833 -118.3000 146° Southeast 286 329 7,800 2,041 Climbing Southern California TRACON
Fri 03:44:18 PM 33.5917 -118.2258 85° East 265 305 11,700 2,531 Climbing Los Angeles Center
Fri 03:45:18 PM 33.5997 -118.1164 89° East 242 278 14,000 1,850 Climbing Los Angeles Center
Fri 03:46:18 PM 33.6014 -118.0042 79° East 287 330 15,400 1,500 Climbing Los Angeles Center
Fri 03:47:18 PM 33.6197 -117.8922 47° Northeast 332 382 17,000 1,350 Climbing Los Angeles Center
Fri 03:48:18 PM 33.6772 -117.8186 65° Northeast 318 366 18,100 1,350 Climbing Los Angeles Center
Fri 03:49:18 PM 33.7183 -117.7144 95° East 319 367 19,700 1,000 Climbing Los Angeles Center
Fri 03:50:18 PM 33.7075 -117.5644 93° East 377 434 20,100 650 Climbing Los Angeles Center
Fri 03:51:18 PM 33.7011 -117.4022 94° East 416 479 21,000 1,300 Climbing Los Angeles Center
Fri 03:52:18 PM 33.6922 -117.2347 95° East 478 550 22,700 2,132 Climbing Los Angeles Center
Fri 03:53:19 PM 33.6811 -117.0697 93° East 490 564 25,300 2,150 Climbing Los Angeles Center
Fri 03:54:18 PM 33.6739 -116.9200 80° East 477 549 27,000 807 Climbing Los Angeles Center
Fri 03:55:18 PM 33.6936 -116.7803 93° East 430 495 26,900 750 Descending Los Angeles Center
Fri 03:56:18 PM 33.6881 -116.6356 91° East 430 495 28,500 1,000 Climbing Los Angeles Center
Fri 03:57:18 PM 33.6844 -116.4683 93° East 438 504 28,900 250 Climbing Los Angeles Center
Fri 03:58:18 PM 33.6764 -116.3108 93° East 458 527 29,000  Climbing Los Angeles Center
Fri 03:59:18 PM 33.6703 -116.1511 94° East 466 536 28,900 -50 Descending Los Angeles Center
Fri 04:00:19 PM 33.6619 -115.9939 94° East 471 542 28,900  Level Los Angeles Center
Fri 04:01:18 PM 33.6533 -115.8342 93° East 471 542 28,900 50 Level Los Angeles Center
Fri 04:02:18 PM 33.6464 -115.6769 95° East 476 548 29,000 50 Climbing Los Angeles Center
Fri 04:03:18 PM 33.6353 -115.5150 93° East 476 548 29,000  Level Los Angeles Center
Fri 04:04:18 PM 33.6283 -115.3578 93° East 476 548 29,000  Level Los Angeles Center
Fri 04:05:18 PM 33.6208 -115.1983 93° East 476 548 29,000  Level Los Angeles Center
Fri 04:06:18 PM 33.6133 -115.0436 94° East 476 548 29,000  Level Los Angeles Center
Fri 04:07:18 PM 33.6033 -114.8817 97° East 476 548 29,000 -50 Level Los Angeles Center
Fri 04:08:18 PM 33.5872 -114.7247 102° East 476 548 28,900  Descending Los Angeles Center
Fri 04:09:18 PM 33.5647 -114.5981 103° East 482 555 29,000 -818 Climbing Los Angeles Center
Fri 04:11:36 PM 33.4922 -114.2353 104° East 473 544 26,200 -1,206 Descending Albuquerque Center
Fri 04:12:37 PM 33.4611 -114.0883 103° East 463 533 25,000 -600 Descending Albuquerque Center
Fri 04:13:36 PM 33.4339 -113.9419 104° East 458 527 25,000  Level Albuquerque Center
Fri 04:14:36 PM 33.4042 -113.7978 103° East 451 519 25,000 -1,367 Level Albuquerque Center
Fri 04:16:36 PM 33.3464 -113.5075 105° East 446 513 20,900 -1,900 Descending Albuquerque Center
Fri 04:17:36 PM 33.3156 -113.3711 102° East 440 506 19,300 -1,300 Descending Albuquerque Center
Fri 04:18:36 PM 33.2911 -113.2353 100° East 426 490 18,300 -1,050 Descending Albuquerque Center
Fri 04:19:36 PM 33.2725 -113.1047 88° East 414 476 17,200 -900 Descending Albuquerque Center
Fri 04:20:36 PM 33.2761 -112.9808 88° East 394 453 16,500 -700 Descending Albuquerque Center
Fri 04:21:36 PM 33.2800 -112.8544 89° East 384 442 15,800 -700 Descending Albuquerque Center
Fri 04:22:36 PM 33.2814 -112.7353 88° East 371 427 15,100 -900 Descending Albuquerque Center
Fri 04:23:36 PM 33.2842 -112.6214 87° East 358 412 14,000 -1,200 Descending Albuquerque Center
Fri 04:24:36 PM 33.2894 -112.5025 87° East 335 386 12,700 -1,133 Descending Albuquerque Center
Fri 04:26:36 PM 33.3000 -112.2833 90° East 324 373 10,600 -1,133 Descending Phoenix TRACON
Fri 04:27:36 PM 33.3000 -112.1833 77° East 304 350 9,300 -800 Descending Phoenix TRACON
Fri 04:28:36 PM 33.3167 -112.1000 77° East 253 291 9,000 -650 Descending Phoenix TRACON
Fri 04:29:36 PM 33.3333 -112.0167 77° East 240 276 8,000 -1,000 Descending Phoenix TRACON
Fri 04:30:36 PM 33.3500 -111.9333 90° East 251 289 7,000 -1,150 Descending Phoenix TRACON
Fri 04:31:36 PM 33.3500 -111.8667 51° Northeast 236 272 5,700 -1,150 Descending Phoenix TRACON
Fri 04:32:36 PM 33.3833 -111.8167 337° Northwest 206 237 4,700 -950 Descending Phoenix TRACON
Fri 04:33:36 PM 33.4167 -111.8333 337° Northwest 190 219 3,800 -900 Descending Phoenix TRACON

Login

Don't have an account? Register now (free) for customized features, flight alerts, and more!